createdAt,value
2017-09-20T00:00:21.172Z,92.80
2017-09-20T00:02:49.284Z,92.80
2017-09-20T00:05:16.879Z,92.80
2017-09-20T00:07:44.439Z,92.90
2017-09-20T00:10:15.454Z,93.00
2017-09-20T00:12:44.172Z,92.70
2017-09-20T00:15:14.561Z,92.70
2017-09-20T00:17:42.121Z,92.90
2017-09-20T00:20:10.644Z,93.00
2017-09-20T00:22:38.223Z,92.90
2017-09-20T00:25:09.324Z,92.70
2017-09-20T00:27:37.712Z,92.50
2017-09-20T00:30:05.290Z,92.50
2017-09-20T00:32:32.824Z,92.50
2017-09-20T00:35:00.525Z,92.70
2017-09-20T00:37:31.146Z,92.70
2017-09-20T00:40:03.317Z,92.90
2017-09-20T00:42:31.893Z,92.60
2017-09-20T00:45:02.891Z,92.60
2017-09-20T00:47:35.471Z,92.60
2017-09-20T00:50:03.220Z,92.60
2017-09-20T00:52:30.817Z,92.90
2017-09-20T00:54:59.128Z,93.00
2017-09-20T00:57:26.731Z,93.00
2017-09-20T00:59:55.041Z,93.10
2017-09-20T01:02:22.696Z,93.00
2017-09-20T01:04:54.361Z,93.10
2017-09-20T01:07:21.952Z,92.90
2017-09-20T01:09:49.532Z,93.00
2017-09-20T01:12:21.727Z,93.00
2017-09-20T01:14:49.574Z,93.00
2017-09-20T01:17:17.972Z,93.00
2017-09-20T01:19:45.591Z,92.90
2017-09-20T01:25:19.119Z,93.20
2017-09-20T01:27:46.754Z,93.20
2017-09-20T01:30:17.550Z,93.40
2017-09-20T01:32:45.520Z,93.60
2017-09-20T01:35:13.130Z,93.40
2017-09-20T01:37:40.748Z,93.20
2017-09-20T01:40:08.330Z,93.00
2017-09-20T01:42:35.941Z,93.20
2017-09-20T01:45:03.538Z,93.10
2017-09-20T01:47:31.211Z,93.10
2017-09-20T01:49:58.845Z,93.10
2017-09-20T01:52:26.548Z,93.00
2017-09-20T01:54:54.216Z,93.00
2017-09-20T01:57:22.669Z,92.90
2017-09-20T01:59:51.490Z,93.00
2017-09-20T02:02:19.206Z,93.00
2017-09-20T02:04:47.072Z,93.00
2017-09-20T02:07:15.443Z,93.30
2017-09-20T02:09:43.053Z,93.30
2017-09-20T02:12:10.673Z,93.50
2017-09-20T02:14:38.335Z,93.20
2017-09-20T02:17:05.876Z,93.30
2017-09-20T02:19:33.526Z,93.10
2017-09-20T02:22:01.068Z,93.00
2017-09-20T02:24:28.754Z,92.90
2017-09-20T02:26:57.546Z,93.00
2017-09-20T02:29:25.440Z,93.00
2017-09-20T02:31:53.400Z,92.80
2017-09-20T02:34:21.430Z,92.80
2017-09-20T02:36:49.204Z,92.70
2017-09-20T02:39:16.922Z,92.80
2017-09-20T02:41:44.550Z,92.80
2017-09-20T02:44:12.150Z,92.80
2017-09-20T02:46:39.808Z,93.00
2017-09-20T02:49:07.418Z,92.80
2017-09-20T02:51:35.081Z,93.00
2017-09-20T02:54:02.843Z,93.10
2017-09-20T02:56:30.549Z,93.10
2017-09-20T02:58:58.224Z,93.20
2017-09-20T03:01:25.971Z,93.00
2017-09-20T03:03:54.257Z,92.90
2017-09-20T03:06:22.263Z,92.80
2017-09-20T03:08:50.007Z,92.80
2017-09-20T03:11:17.747Z,93.00
2017-09-20T03:13:45.455Z,93.00
2017-09-20T03:16:14.558Z,93.00
2017-09-20T03:18:42.907Z,92.80
2017-09-20T03:21:10.478Z,92.80
2017-09-20T03:23:38.905Z,92.80
2017-09-20T03:26:06.544Z,92.80
2017-09-20T03:28:34.111Z,92.90
2017-09-20T03:31:01.731Z,92.70
2017-09-20T03:33:29.486Z,92.80
2017-09-20T03:35:58.055Z,93.00
2017-09-20T03:38:26.564Z,93.00
2017-09-20T03:40:55.190Z,93.00
2017-09-20T03:43:22.868Z,93.00
2017-09-20T03:45:51.259Z,93.10
2017-09-20T03:48:18.852Z,93.20
2017-09-20T03:50:47.274Z,93.10
2017-09-20T03:53:14.864Z,93.10
2017-09-20T03:55:42.431Z,93.00
2017-09-20T03:58:10.090Z,93.00
2017-09-20T04:00:38.544Z,93.00
2017-09-20T04:03:07.657Z,93.00
2017-09-20T04:05:36.073Z,93.00
2017-09-20T04:08:03.632Z,93.00
2017-09-20T04:10:31.358Z,93.10
2017-09-20T04:12:59.158Z,93.10
2017-09-20T04:15:26.994Z,92.90
2017-09-20T04:17:54.690Z,93.00
2017-09-20T04:20:22.555Z,93.00
2017-09-20T04:22:50.336Z,92.90
2017-09-20T04:25:18.080Z,93.00
2017-09-20T04:27:45.689Z,92.80
2017-09-20T04:30:13.462Z,93.00
2017-09-20T04:32:41.007Z,92.70
2017-09-20T04:35:08.584Z,92.70
2017-09-20T04:37:37.123Z,92.90
2017-09-20T04:40:05.817Z,92.40
2017-09-20T04:42:34.166Z,92.40
2017-09-20T04:45:01.751Z,92.30
2017-09-20T04:47:29.365Z,92.30
2017-09-20T04:49:57.001Z,92.30
2017-09-20T04:52:25.724Z,92.30
2017-09-20T04:54:53.495Z,92.20
2017-09-20T04:57:21.910Z,92.10
2017-09-20T04:59:50.347Z,92.30
2017-09-20T05:02:18.758Z,92.10
2017-09-20T05:04:47.087Z,91.80
2017-09-20T05:07:14.634Z,91.80
2017-09-20T05:09:42.216Z,92.50
2017-09-20T05:12:09.772Z,92.60
2017-09-20T05:14:37.368Z,92.80
2017-09-20T05:17:04.902Z,92.60
2017-09-20T05:19:32.468Z,93.00
2017-09-20T05:22:00.029Z,92.50
2017-09-20T05:24:28.376Z,92.90
2017-09-20T05:26:55.944Z,92.90
2017-09-20T05:29:23.540Z,93.00
2017-09-20T05:31:51.189Z,92.90
2017-09-20T05:34:18.766Z,92.90
2017-09-20T05:36:46.307Z,93.10
2017-09-20T05:39:13.901Z,92.90
2017-09-20T05:41:42.538Z,92.80
2017-09-20T05:44:10.254Z,92.90
2017-09-20T05:46:37.839Z,93.20
2017-09-20T05:49:06.178Z,93.30
2017-09-20T05:51:33.728Z,93.30
2017-09-20T05:54:01.347Z,93.30
2017-09-20T05:56:29.724Z,93.20
2017-09-20T05:58:57.468Z,93.10
2017-09-20T06:01:25.090Z,93.10
2017-09-20T06:03:53.305Z,92.90
2017-09-20T06:06:21.340Z,93.20
2017-09-20T06:08:49.739Z,93.50
2017-09-20T06:11:17.317Z,93.50
2017-09-20T06:13:44.862Z,93.80
2017-09-20T06:16:12.435Z,93.60
2017-09-20T06:18:40.000Z,93.80
2017-09-20T06:21:07.543Z,93.90
2017-09-20T06:23:35.120Z,93.80
2017-09-20T06:26:02.652Z,94.20
2017-09-20T06:28:31.003Z,93.90
2017-09-20T06:30:59.348Z,93.80
2017-09-20T06:33:26.946Z,93.80
2017-09-20T06:35:54.542Z,93.80
2017-09-20T06:38:23.288Z,93.30
2017-09-20T06:40:51.013Z,93.30
2017-09-20T06:43:18.651Z,93.20
2017-09-20T06:45:46.228Z,93.40
2017-09-20T06:48:13.808Z,93.40
2017-09-20T06:50:41.379Z,93.50
2017-09-20T06:53:08.972Z,93.40
2017-09-20T06:55:36.500Z,93.30
2017-09-20T06:58:04.060Z,93.40
2017-09-20T07:00:31.624Z,93.30
2017-09-20T07:03:00.007Z,93.90
2017-09-20T07:05:27.560Z,93.50
2017-09-20T07:07:55.884Z,93.70
2017-09-20T07:10:23.526Z,93.70
2017-09-20T07:12:51.920Z,93.50
2017-09-20T07:15:19.537Z,93.40
2017-09-20T07:17:47.132Z,93.30
2017-09-20T07:20:14.749Z,93.10
2017-09-20T07:22:42.291Z,93.10
2017-09-20T07:25:10.633Z,92.80
2017-09-20T07:27:38.174Z,92.50
2017-09-20T07:30:05.748Z,92.60
2017-09-20T07:32:33.287Z,92.70
2017-09-20T07:35:00.859Z,92.60
2017-09-20T07:37:29.251Z,92.60
2017-09-20T07:39:56.804Z,92.60
2017-09-20T07:42:24.342Z,92.60
2017-09-20T07:44:52.006Z,92.20
2017-09-20T07:47:19.568Z,92.10
2017-09-20T07:49:47.180Z,92.00
2017-09-20T07:52:14.728Z,92.00
2017-09-20T07:54:42.299Z,91.80
2017-09-20T07:57:09.838Z,91.70
2017-09-20T07:59:37.412Z,91.60
2017-09-20T08:02:04.979Z,91.30
2017-09-20T08:04:33.327Z,89.40
2017-09-20T08:07:02.371Z,88.70
2017-09-20T08:09:29.948Z,88.70
2017-09-20T08:11:57.495Z,90.50
2017-09-20T08:14:25.077Z,89.90
2017-09-20T08:16:52.638Z,88.00
2017-09-20T08:19:20.240Z,87.90
2017-09-20T08:21:48.061Z,88.30
2017-09-20T08:24:15.659Z,90.20
2017-09-20T08:26:43.967Z,87.60
2017-09-20T08:29:11.563Z,87.50
2017-09-20T08:31:39.870Z,86.90
2017-09-20T08:34:07.447Z,86.70
2017-09-20T08:36:34.975Z,85.80
2017-09-20T08:39:02.610Z,85.20
2017-09-20T08:41:30.148Z,82.70
2017-09-20T08:43:57.730Z,78.50
2017-09-20T08:46:25.280Z,76.40
2017-09-20T08:48:53.635Z,77.70
2017-09-20T08:51:21.180Z,77.70
2017-09-20T08:53:48.791Z,76.40
2017-09-20T08:56:16.326Z,74.10
2017-09-20T08:58:43.867Z,73.00
2017-09-20T09:01:11.436Z,72.80
2017-09-20T09:03:38.990Z,70.60
2017-09-20T09:06:06.564Z,72.50
2017-09-20T09:08:34.880Z,76.70
2017-09-20T09:11:02.464Z,77.00
2017-09-20T09:13:30.004Z,78.90
2017-09-20T09:15:57.587Z,79.70
2017-09-20T09:18:25.135Z,79.90
2017-09-20T09:20:52.716Z,79.00
2017-09-20T09:23:20.289Z,80.10
2017-09-20T09:25:47.874Z,79.30
2017-09-20T09:28:15.411Z,78.50
2017-09-20T09:30:42.994Z,77.00
2017-09-20T09:33:10.543Z,77.80
2017-09-20T09:35:38.111Z,78.10
2017-09-20T09:38:05.662Z,77.00
2017-09-20T09:40:33.240Z,75.40
2017-09-20T09:43:01.062Z,75.00
2017-09-20T09:45:29.085Z,71.20
2017-09-20T09:47:57.427Z,61.70
2017-09-20T09:50:24.969Z,60.80
2017-09-20T09:52:52.576Z,66.70
2017-09-20T09:55:20.888Z,68.10
2017-09-20T09:57:48.455Z,67.50
2017-09-20T10:00:16.039Z,70.70
2017-09-20T10:02:44.391Z,66.60
2017-09-20T10:05:11.936Z,66.50
2017-09-20T10:07:39.521Z,71.50
2017-09-20T10:10:07.056Z,72.30
2017-09-20T10:12:34.632Z,70.50
2017-09-20T10:15:02.171Z,69.60
2017-09-20T10:17:29.736Z,66.70
2017-09-20T10:19:57.276Z,62.10
2017-09-20T10:22:24.852Z,60.10
2017-09-20T10:24:52.406Z,59.10
2017-09-20T10:27:20.777Z,55.90
2017-09-20T10:29:49.090Z,54.60
2017-09-20T10:32:16.622Z,54.60
2017-09-20T10:34:44.196Z,56.50
2017-09-20T10:37:11.803Z,53.90
2017-09-20T10:39:39.384Z,55.20
2017-09-20T10:42:06.923Z,54.00
2017-09-20T10:44:34.524Z,57.50
2017-09-20T10:47:02.068Z,57.50
2017-09-20T10:49:29.636Z,57.10
2017-09-20T10:51:57.179Z,55.90
2017-09-20T10:54:24.771Z,55.00
2017-09-20T10:56:53.075Z,55.90
2017-09-20T10:59:20.639Z,55.90
2017-09-20T11:01:48.343Z,55.90
2017-09-20T11:04:16.671Z,54.30
2017-09-20T11:06:44.978Z,54.50
2017-09-20T11:09:13.318Z,53.10
2017-09-20T11:11:40.860Z,53.00
2017-09-20T11:14:08.436Z,51.10
2017-09-20T11:16:35.969Z,51.30
2017-09-20T11:19:04.308Z,53.60
2017-09-20T11:21:31.843Z,53.60
2017-09-20T11:23:59.428Z,61.80
2017-09-20T11:26:27.741Z,53.80
2017-09-20T11:28:56.192Z,59.70
2017-09-20T11:31:23.749Z,59.70
2017-09-20T11:33:51.363Z,59.40
2017-09-20T11:36:18.914Z,52.00
2017-09-20T11:38:46.492Z,52.90
2017-09-20T11:41:14.254Z,53.10
2017-09-20T11:43:42.461Z,54.20
2017-09-20T11:46:10.281Z,53.10
2017-09-20T11:48:38.885Z,52.70
2017-09-20T11:51:06.666Z,53.20
2017-09-20T11:53:34.298Z,49.20
2017-09-20T11:56:01.903Z,48.50
2017-09-20T11:58:30.325Z,48.90
2017-09-20T12:00:58.816Z,49.90
2017-09-20T12:03:26.450Z,49.90
2017-09-20T12:05:54.047Z,54.50
2017-09-20T12:08:21.647Z,52.30
2017-09-20T12:10:49.212Z,58.10
2017-09-20T12:13:16.747Z,64.10
2017-09-20T12:15:44.321Z,64.50
2017-09-20T12:18:12.744Z,66.40
2017-09-20T12:20:40.329Z,66.40
2017-09-20T12:23:08.749Z,52.20
2017-09-20T12:25:36.803Z,52.10
2017-09-20T12:28:04.559Z,53.50
2017-09-20T12:30:32.313Z,54.80
2017-09-20T12:33:00.051Z,61.50
2017-09-20T12:35:28.828Z,51.00
2017-09-20T12:37:56.579Z,50.60
2017-09-20T12:40:25.189Z,48.80
2017-09-20T12:42:52.996Z,49.70
2017-09-20T12:45:20.988Z,49.30
2017-09-20T12:47:48.558Z,48.20
2017-09-20T12:50:16.185Z,48.40
2017-09-20T12:52:44.548Z,47.10
2017-09-20T12:55:12.996Z,47.00
2017-09-20T12:57:40.653Z,47.00
2017-09-20T13:00:08.303Z,47.40
2017-09-20T13:02:35.896Z,46.30
2017-09-20T13:05:03.464Z,48.60
2017-09-20T13:07:30.991Z,48.70
2017-09-20T13:09:58.547Z,52.30
2017-09-20T13:12:26.091Z,58.60
2017-09-20T13:14:53.698Z,49.20
2017-09-20T13:17:21.232Z,50.00
2017-09-20T13:19:48.840Z,47.80
2017-09-20T13:22:16.390Z,49.40
2017-09-20T13:24:44.002Z,52.80
2017-09-20T13:27:11.608Z,50.60
2017-09-20T13:29:40.019Z,46.50
2017-09-20T13:32:07.596Z,46.40
2017-09-20T13:34:35.211Z,43.60
2017-09-20T13:37:02.743Z,43.30
2017-09-20T13:39:30.310Z,43.60
2017-09-20T13:41:57.857Z,45.50
2017-09-20T13:44:25.431Z,46.00
2017-09-20T13:46:52.979Z,46.70
2017-09-20T13:49:20.557Z,49.50
2017-09-20T13:51:48.959Z,57.50
2017-09-20T13:54:16.532Z,57.50
2017-09-20T13:56:44.080Z,53.90
2017-09-20T13:59:11.674Z,52.50
2017-09-20T14:01:39.208Z,55.60
2017-09-20T14:04:06.783Z,57.60
2017-09-20T14:06:34.430Z,58.50
2017-09-20T14:09:02.007Z,57.00
2017-09-20T14:11:29.552Z,57.90
2017-09-20T14:13:57.151Z,57.20
2017-09-20T14:16:24.692Z,58.50
2017-09-20T14:18:52.241Z,57.90
2017-09-20T14:21:19.882Z,54.90
2017-09-20T14:23:47.421Z,56.50
2017-09-20T14:26:14.983Z,58.00
2017-09-20T14:28:42.523Z,56.80
2017-09-20T14:31:10.096Z,49.90
2017-09-20T14:33:37.628Z,48.50
2017-09-20T14:36:05.206Z,50.40
2017-09-20T14:38:32.750Z,52.80
2017-09-20T14:41:00.323Z,58.60
2017-09-20T14:43:27.881Z,58.70
2017-09-20T14:45:55.480Z,60.10
2017-09-20T14:48:23.059Z,56.70
2017-09-20T14:50:50.699Z,53.60
2017-09-20T14:53:19.033Z,52.70
2017-09-20T14:55:46.616Z,52.70
2017-09-20T14:58:14.163Z,52.90
2017-09-20T15:00:41.735Z,52.60
2017-09-20T15:03:09.271Z,53.40
2017-09-20T15:05:36.959Z,53.80
2017-09-20T15:08:04.500Z,54.00
2017-09-20T15:10:32.063Z,55.80
2017-09-20T15:12:59.604Z,55.40
2017-09-20T15:15:27.191Z,55.60
2017-09-20T15:17:54.741Z,54.50
2017-09-20T15:20:22.517Z,55.30
2017-09-20T15:22:50.136Z,57.50
2017-09-20T15:25:17.720Z,56.10
2017-09-20T15:27:45.263Z,58.10
2017-09-20T15:30:12.848Z,57.60
2017-09-20T15:32:41.147Z,57.90
2017-09-20T15:35:08.726Z,57.90
2017-09-20T15:37:36.276Z,57.90
2017-09-20T15:40:03.847Z,61.10
2017-09-20T15:42:32.157Z,63.70
2017-09-20T15:44:59.752Z,63.70
2017-09-20T15:47:28.073Z,63.70
2017-09-20T15:49:55.617Z,64.50
2017-09-20T15:52:23.204Z,63.40
2017-09-20T15:54:51.610Z,64.80
2017-09-20T15:57:19.166Z,64.70
2017-09-20T15:59:46.712Z,64.20
2017-09-20T16:02:14.320Z,69.80
2017-09-20T16:04:41.879Z,71.20
2017-09-20T16:07:09.493Z,68.90
2017-09-20T16:09:37.818Z,68.70
2017-09-20T16:12:05.468Z,68.50
2017-09-20T16:14:33.002Z,69.20
2017-09-20T16:17:01.347Z,70.00
2017-09-20T16:19:28.902Z,69.90
2017-09-20T16:21:56.483Z,70.80
2017-09-20T16:24:24.048Z,71.30
2017-09-20T16:26:52.416Z,73.90
2017-09-20T16:29:20.732Z,75.00
2017-09-20T16:31:48.319Z,74.90
2017-09-20T16:34:16.634Z,76.50
2017-09-20T16:36:44.201Z,76.20
2017-09-20T16:39:11.735Z,77.80
2017-09-20T16:41:39.303Z,77.80
2017-09-20T16:44:06.849Z,78.20
2017-09-20T16:46:34.433Z,78.90
2017-09-20T16:49:02.132Z,79.00
2017-09-20T16:51:29.680Z,79.70
2017-09-20T16:53:57.246Z,79.70
2017-09-20T16:56:25.580Z,80.70
2017-09-20T16:58:53.180Z,80.70
2017-09-20T17:01:20.744Z,80.90
2017-09-20T17:03:48.320Z,81.40
2017-09-20T17:06:16.490Z,80.60
2017-09-20T17:08:45.251Z,80.90
2017-09-20T17:11:12.809Z,80.80
2017-09-20T17:13:41.143Z,81.60
2017-09-20T17:16:08.689Z,81.60
2017-09-20T17:18:36.281Z,81.20
2017-09-20T17:21:04.580Z,82.60
2017-09-20T17:23:32.183Z,82.50
2017-09-20T17:26:00.508Z,83.70
2017-09-20T17:28:28.284Z,83.20
2017-09-20T17:30:55.864Z,83.40
2017-09-20T17:33:23.418Z,83.60
2017-09-20T17:35:51.033Z,84.10
2017-09-20T17:38:19.343Z,85.10
2017-09-20T17:40:46.924Z,85.00
2017-09-20T17:43:14.664Z,85.20
2017-09-20T17:45:42.409Z,85.60
2017-09-20T17:48:10.080Z,85.40
2017-09-20T17:50:37.708Z,85.70
2017-09-20T17:53:05.768Z,86.10
2017-09-20T17:55:33.504Z,86.30
2017-09-20T17:58:01.267Z,86.50
2017-09-20T18:00:28.888Z,87.00
2017-09-20T18:02:56.495Z,87.20
2017-09-20T18:05:25.325Z,88.10
2017-09-20T18:07:53.024Z,88.00
2017-09-20T18:10:20.691Z,88.30
2017-09-20T18:12:48.351Z,88.40
2017-09-20T18:15:15.970Z,89.00
2017-09-20T18:17:43.583Z,88.90
2017-09-20T18:20:11.194Z,89.00
2017-09-20T18:22:38.890Z,89.30
2017-09-20T18:25:07.216Z,89.70
2017-09-20T18:27:34.797Z,89.70
2017-09-20T18:30:03.109Z,90.10
2017-09-20T18:32:30.691Z,89.50
2017-09-20T18:34:58.235Z,89.70
2017-09-20T18:37:25.812Z,89.90
2017-09-20T18:39:54.226Z,89.60
2017-09-20T18:42:21.862Z,89.60
2017-09-20T18:44:49.741Z,90.00
2017-09-20T18:47:17.307Z,90.00
2017-09-20T18:49:44.861Z,90.10
2017-09-20T18:52:13.192Z,90.00
2017-09-20T18:54:40.768Z,90.00
2017-09-20T18:57:09.087Z,90.10
2017-09-20T18:59:36.673Z,90.10
2017-09-20T19:02:04.981Z,90.00
2017-09-20T19:04:32.551Z,90.00
2017-09-20T19:07:00.215Z,89.60
2017-09-20T19:09:27.869Z,90.00
2017-09-20T19:11:55.511Z,90.00
2017-09-20T19:14:23.178Z,89.70
2017-09-20T19:16:51.850Z,90.20
2017-09-20T19:19:19.505Z,90.20
2017-09-20T19:21:47.808Z,89.50
2017-09-20T19:24:15.380Z,89.50
2017-09-20T19:26:42.932Z,89.50
2017-09-20T19:29:10.527Z,89.30
2017-09-20T19:31:38.086Z,89.30
2017-09-20T19:34:05.659Z,89.40
2017-09-20T19:36:33.215Z,89.90
2017-09-20T19:39:00.838Z,90.40
2017-09-20T19:41:28.408Z,90.50
2017-09-20T19:43:56.085Z,90.60
2017-09-20T19:46:23.668Z,90.80
2017-09-20T19:48:51.243Z,90.80
2017-09-20T19:51:18.839Z,90.50
2017-09-20T19:53:46.438Z,90.30
2017-09-20T19:56:13.975Z,90.40
2017-09-20T19:58:41.519Z,90.40
2017-09-20T20:01:09.087Z,90.20
2017-09-20T20:03:37.404Z,90.20
2017-09-20T20:06:05.187Z,90.10
2017-09-20T20:08:33.056Z,90.30
2017-09-20T20:11:02.724Z,90.60
2017-09-20T20:13:30.507Z,91.00
2017-09-20T20:15:59.080Z,90.20
2017-09-20T20:18:26.699Z,90.20
2017-09-20T20:20:54.550Z,90.20
2017-09-20T20:23:22.395Z,90.20
2017-09-20T20:25:51.714Z,90.50
2017-09-20T20:28:19.536Z,90.50
2017-09-20T20:30:47.155Z,90.60
2017-09-20T20:33:14.827Z,90.70
2017-09-20T20:35:42.568Z,90.80
2017-09-20T20:38:10.186Z,90.90
2017-09-20T20:40:37.949Z,90.80
2017-09-20T20:43:05.960Z,90.50
2017-09-20T20:45:35.036Z,90.20
2017-09-20T20:48:02.651Z,90.20
2017-09-20T20:50:30.276Z,90.30
2017-09-20T20:52:58.015Z,90.20
2017-09-20T20:55:25.646Z,90.10
2017-09-20T20:57:53.487Z,90.30
2017-09-20T21:00:21.117Z,90.60
2017-09-20T21:02:49.472Z,90.50
2017-09-20T21:05:17.247Z,90.50
2017-09-20T21:07:44.835Z,90.50
2017-09-20T21:10:12.459Z,90.50
2017-09-20T21:12:40.188Z,90.50
2017-09-20T21:15:07.993Z,90.60
2017-09-20T21:17:35.556Z,90.70
2017-09-20T21:20:03.919Z,90.40
2017-09-20T21:22:31.552Z,90.30
2017-09-20T21:24:59.190Z,90.80
2017-09-20T21:27:26.788Z,90.40
2017-09-20T21:29:54.450Z,90.40
2017-09-20T21:32:21.997Z,90.20
2017-09-20T21:34:49.588Z,89.90
2017-09-20T21:37:17.224Z,90.00
2017-09-20T21:39:44.946Z,90.10
2017-09-20T21:42:12.534Z,90.20
2017-09-20T21:44:40.164Z,90.50
2017-09-20T21:47:08.526Z,90.60
2017-09-20T21:49:36.077Z,90.60
2017-09-20T21:52:03.811Z,90.10
2017-09-20T21:54:32.108Z,90.20
2017-09-20T21:57:00.039Z,90.20
2017-09-20T21:59:27.586Z,90.30
2017-09-20T22:01:55.293Z,90.40
2017-09-20T22:04:22.881Z,90.50
2017-09-20T22:06:50.485Z,90.20
2017-09-20T22:09:18.016Z,90.50
2017-09-20T22:11:46.410Z,90.00
2017-09-20T22:14:13.959Z,90.00
2017-09-20T22:16:53.479Z,90.20
2017-09-20T22:19:32.986Z,90.30
2017-09-20T22:22:12.336Z,90.30
2017-09-20T22:24:51.717Z,90.10
2017-09-20T22:27:28.138Z,90.00
2017-09-20T22:29:55.761Z,90.10
2017-09-20T22:32:24.189Z,90.00
2017-09-20T22:34:51.858Z,89.90
2017-09-20T22:37:19.507Z,90.10
2017-09-20T22:39:47.150Z,90.50
2017-09-20T22:42:14.688Z,90.80
2017-09-20T22:44:42.305Z,90.80
2017-09-20T22:47:11.079Z,90.30
2017-09-20T22:49:39.622Z,90.40
2017-09-20T22:52:07.258Z,90.30
2017-09-20T22:54:34.913Z,90.40
2017-09-20T22:57:02.498Z,90.80
2017-09-20T22:59:30.132Z,90.70
2017-09-20T23:01:58.504Z,91.00
2017-09-20T23:04:26.177Z,91.00
2017-09-20T23:06:53.827Z,90.80
2017-09-20T23:09:21.497Z,90.60
2017-09-20T23:11:49.093Z,90.70
2017-09-20T23:14:17.704Z,90.80
2017-09-20T23:16:45.385Z,90.80
2017-09-20T23:19:13.046Z,90.80
2017-09-20T23:21:41.423Z,90.80
2017-09-20T23:24:09.887Z,90.50
2017-09-20T23:26:38.265Z,90.80
2017-09-20T23:29:05.911Z,90.80
2017-09-20T23:31:33.574Z,90.70
2017-09-20T23:34:02.073Z,91.10
2017-09-20T23:36:29.697Z,91.10
2017-09-20T23:38:57.394Z,91.00
2017-09-20T23:41:25.776Z,90.90
2017-09-20T23:43:53.478Z,90.80
2017-09-20T23:46:21.128Z,90.40
2017-09-20T23:48:48.824Z,90.70
2017-09-20T23:51:16.367Z,91.10
2017-09-20T23:53:43.899Z,91.20
2017-09-20T23:56:12.237Z,90.90
2017-09-20T23:58:40.336Z,90.80
